DBR564 KSNA-KLAS
Flight info
| Callsign | DBR564 |
|---|---|
| Flight time | 0h 46m |
| Altitude | 29000 |
| Route | FINZZ3 MISEN RNDRZ4 |
| Aircraft | CL30/M-SDE3FGJ4P2RWXY/SD1 |
Departure
| Time | 2026-05-08 00:48 |
|---|---|
| Airport | John Wayne Orange County International Airport (KSNA) |
Arrival
| Time | 2026-05-08 01:35 |
|---|---|
| Airport | Harry Reid International Airport (KLAS) |
| Time | Latitude | Longitude | Altitude | Speed | Heading |
|---|---|---|---|---|---|
| 2026-05-08 00:31 | 33.66663 | -117.87241 | 64 ft | 0 kts | 216° |
| 2026-05-08 00:36 | 33.66657 | -117.87262 | 64 ft | 3 kts | 307° |
| 2026-05-08 00:36 | 33.66672 | -117.87286 | 64 ft | 4 kts | 306° |
| 2026-05-08 00:36 | 33.66674 | -117.87290 | 64 ft | 0 kts | 306° |
| 2026-05-08 00:37 | 33.66674 | -117.87291 | 64 ft | 0 kts | 306° |
| 2026-05-08 00:39 | 33.66675 | -117.87291 | 64 ft | 0 kts | 306° |
| 2026-05-08 00:41 | 33.66684 | -117.87306 | 64 ft | 6 kts | 320° |
| 2026-05-08 00:41 | 33.66742 | -117.87275 | 64 ft | 11 kts | 32° |
| 2026-05-08 00:41 | 33.66789 | -117.87235 | 64 ft | 14 kts | 37° |
| 2026-05-08 00:41 | 33.66903 | -117.87132 | 64 ft | 16 kts | 37° |
| 2026-05-08 00:42 | 33.66992 | -117.87047 | 64 ft | 17 kts | 38° |
| 2026-05-08 00:42 | 33.67053 | -117.86988 | 64 ft | 17 kts | 38° |
| 2026-05-08 00:42 | 33.67150 | -117.86896 | 64 ft | 18 kts | 42° |
| 2026-05-08 00:42 | 33.67240 | -117.86788 | 64 ft | 16 kts | 47° |
| 2026-05-08 00:43 | 33.67318 | -117.86690 | 64 ft | 17 kts | 46° |
| 2026-05-08 00:43 | 33.67415 | -117.86611 | 64 ft | 17 kts | 26° |
| 2026-05-08 00:43 | 33.67526 | -117.86546 | 64 ft | 18 kts | 26° |
| 2026-05-08 00:43 | 33.67641 | -117.86479 | 64 ft | 19 kts | 26° |
| 2026-05-08 00:44 | 33.67752 | -117.86414 | 64 ft | 18 kts | 26° |
| 2026-05-08 00:44 | 33.67866 | -117.86348 | 64 ft | 19 kts | 26° |
| 2026-05-08 00:44 | 33.67980 | -117.86280 | 64 ft | 13 kts | 27° |
| 2026-05-08 00:44 | 33.68037 | -117.86265 | 64 ft | 8 kts | 310° |
| 2026-05-08 00:45 | 33.68068 | -117.86326 | 64 ft | 9 kts | 297° |
| 2026-05-08 00:45 | 33.68098 | -117.86395 | 64 ft | 10 kts | 297° |
| 2026-05-08 00:45 | 33.68125 | -117.86456 | 64 ft | 0 kts | 298° |
| 2026-05-08 00:46 | 33.68125 | -117.86457 | 64 ft | 0 kts | 298° |
| 2026-05-08 00:47 | 33.68130 | -117.86469 | 64 ft | 5 kts | 298° |
| 2026-05-08 00:47 | 33.68144 | -117.86519 | 64 ft | 4 kts | 227° |
| 2026-05-08 00:48 | 33.68120 | -117.86534 | 64 ft | 8 kts | 208° |
| 2026-05-08 00:48 | 33.67771 | -117.86755 | 64 ft | 115 kts | 208° |
| 2026-05-08 00:48 | 33.66779 | -117.87388 | 495 ft | 195 kts | 208° |
| 2026-05-08 00:48 | 33.65548 | -117.88185 | 979 ft | 200 kts | 209° |
| 2026-05-08 00:49 | 33.64306 | -117.88975 | 1482 ft | 204 kts | 207° |
| 2026-05-08 00:49 | 33.62916 | -117.89465 | 2002 ft | 212 kts | 192° |
| 2026-05-08 00:49 | 33.61451 | -117.89709 | 2501 ft | 216 kts | 188° |
| 2026-05-08 00:49 | 33.59928 | -117.89892 | 3008 ft | 220 kts | 187° |
| 2026-05-08 00:50 | 33.58414 | -117.90097 | 3500 ft | 221 kts | 193° |
| 2026-05-08 00:50 | 33.56977 | -117.90766 | 4044 ft | 222 kts | 210° |
| 2026-05-08 00:50 | 33.55627 | -117.91822 | 4702 ft | 242 kts | 218° |
| 2026-05-08 00:50 | 33.54293 | -117.93118 | 5338 ft | 253 kts | 223° |
| 2026-05-08 00:51 | 33.52961 | -117.94559 | 5973 ft | 261 kts | 226° |
| 2026-05-08 00:51 | 33.51643 | -117.96059 | 6598 ft | 266 kts | 227° |
| 2026-05-08 00:51 | 33.50294 | -117.97631 | 7230 ft | 271 kts | 227° |
| 2026-05-08 00:51 | 33.49265 | -117.99507 | 7846 ft | 272 kts | 250° |
| 2026-05-08 00:52 | 33.49061 | -118.01736 | 8473 ft | 275 kts | 276° |
| 2026-05-08 00:52 | 33.49743 | -118.03895 | 9111 ft | 281 kts | 301° |
| 2026-05-08 00:52 | 33.51017 | -118.05662 | 9745 ft | 286 kts | 315° |
| 2026-05-08 00:52 | 33.52537 | -118.07236 | 10379 ft | 288 kts | 321° |
| 2026-05-08 00:53 | 33.54116 | -118.08746 | 11009 ft | 291 kts | 322° |
| 2026-05-08 00:53 | 33.55678 | -118.10275 | 11630 ft | 294 kts | 322° |
| 2026-05-08 00:53 | 33.57492 | -118.11451 | 12372 ft | 304 kts | 344° |
| 2026-05-08 00:53 | 33.59634 | -118.11662 | 13191 ft | 319 kts | 5° |
| 2026-05-08 00:54 | 33.61839 | -118.11156 | 14009 ft | 324 kts | 16° |
| 2026-05-08 00:54 | 33.63977 | -118.10264 | 14816 ft | 330 kts | 22° |
| 2026-05-08 00:54 | 33.66113 | -118.09145 | 15628 ft | 335 kts | 25° |
| 2026-05-08 00:54 | 33.68202 | -118.07932 | 16427 ft | 339 kts | 26° |
| 2026-05-08 00:55 | 33.70327 | -118.06644 | 17232 ft | 344 kts | 27° |
| 2026-05-08 00:55 | 33.72301 | -118.05431 | 17972 ft | 348 kts | 27° |
| 2026-05-08 00:55 | 33.74477 | -118.04093 | 18778 ft | 352 kts | 27° |
| 2026-05-08 00:55 | 33.76654 | -118.02765 | 19575 ft | 356 kts | 27° |
| 2026-05-08 00:56 | 33.78887 | -118.01415 | 20379 ft | 360 kts | 27° |
| 2026-05-08 00:56 | 33.81157 | -118.00056 | 21187 ft | 364 kts | 27° |
| 2026-05-08 00:56 | 33.83424 | -117.98709 | 21983 ft | 369 kts | 27° |
| 2026-05-08 00:56 | 33.85755 | -117.97332 | 22792 ft | 372 kts | 26° |
| 2026-05-08 00:57 | 33.88086 | -117.95930 | 23597 ft | 375 kts | 28° |
| 2026-05-08 00:57 | 33.90351 | -117.94421 | 24390 ft | 379 kts | 31° |
| 2026-05-08 00:57 | 33.92607 | -117.92731 | 25196 ft | 383 kts | 33° |
| 2026-05-08 00:57 | 33.94816 | -117.90890 | 26003 ft | 387 kts | 35° |
| 2026-05-08 00:58 | 33.96973 | -117.88969 | 26795 ft | 391 kts | 37° |
| 2026-05-08 00:58 | 33.99168 | -117.86941 | 27416 ft | 400 kts | 37° |
| 2026-05-08 00:58 | 34.01384 | -117.84856 | 27943 ft | 407 kts | 37° |
| 2026-05-08 00:58 | 34.03623 | -117.82733 | 28450 ft | 410 kts | 37° |
| 2026-05-08 00:59 | 34.05885 | -117.80582 | 28850 ft | 417 kts | 37° |
| 2026-05-08 00:59 | 34.08083 | -117.78253 | 28979 ft | 431 kts | 42° |
| 2026-05-08 00:59 | 34.10242 | -117.75649 | 29039 ft | 442 kts | 45° |
| 2026-05-08 01:00 | 34.14321 | -117.70109 | 29023 ft | 442 kts | 48° |
| 2026-05-08 01:00 | 34.18211 | -117.64364 | 29009 ft | 441 kts | 50° |
| 2026-05-08 01:01 | 34.22027 | -117.58557 | 29008 ft | 440 kts | 50° |
| 2026-05-08 01:01 | 34.25807 | -117.52780 | 29012 ft | 439 kts | 50° |
| 2026-05-08 01:02 | 34.29619 | -117.47006 | 29011 ft | 439 kts | 50° |
| 2026-05-08 01:02 | 34.33457 | -117.41257 | 29011 ft | 439 kts | 50° |
| 2026-05-08 01:03 | 34.37289 | -117.35536 | 29014 ft | 438 kts | 50° |
| 2026-05-08 01:03 | 34.41122 | -117.29808 | 29018 ft | 438 kts | 49° |
| 2026-05-08 01:04 | 34.44964 | -117.24051 | 29020 ft | 438 kts | 50° |
| 2026-05-08 01:04 | 34.48772 | -117.18329 | 29052 ft | 437 kts | 50° |
| 2026-05-08 01:05 | 34.52590 | -117.12585 | 29067 ft | 437 kts | 49° |
| 2026-05-08 01:05 | 34.56444 | -117.06892 | 29069 ft | 436 kts | 49° |
| 2026-05-08 01:06 | 34.60314 | -117.01237 | 29064 ft | 436 kts | 49° |
| 2026-05-08 01:06 | 34.64183 | -116.95599 | 29044 ft | 435 kts | 49° |
| 2026-05-08 01:07 | 34.68048 | -116.89963 | 29014 ft | 435 kts | 49° |
| 2026-05-08 01:07 | 34.71906 | -116.84327 | 28980 ft | 435 kts | 49° |
| 2026-05-08 01:08 | 34.75781 | -116.78653 | 28951 ft | 435 kts | 49° |
| 2026-05-08 01:08 | 34.79624 | -116.73012 | 28937 ft | 434 kts | 49° |
| 2026-05-08 01:09 | 34.83494 | -116.67365 | 28936 ft | 434 kts | 47° |
| 2026-05-08 01:09 | 34.87779 | -116.62216 | 28940 ft | 433 kts | 41° |
| 2026-05-08 01:10 | 34.92372 | -116.57497 | 28934 ft | 432 kts | 38° |
| 2026-05-08 01:10 | 34.94733 | -116.55200 | 28720 ft | 435 kts | 37° |
| 2026-05-08 01:10 | 34.97092 | -116.52944 | 28315 ft | 433 kts | 37° |
| 2026-05-08 01:10 | 34.99477 | -116.50681 | 27870 ft | 432 kts | 37° |
| 2026-05-08 01:11 | 35.01850 | -116.48434 | 27420 ft | 430 kts | 37° |
| 2026-05-08 01:11 | 35.04176 | -116.46227 | 26975 ft | 427 kts | 37° |
| 2026-05-08 01:11 | 35.06527 | -116.43985 | 26521 ft | 425 kts | 37° |
| 2026-05-08 01:11 | 35.08787 | -116.41713 | 26074 ft | 423 kts | 39° |
| 2026-05-08 01:12 | 35.10972 | -116.39306 | 25625 ft | 420 kts | 42° |
| 2026-05-08 01:12 | 35.13053 | -116.36849 | 25183 ft | 418 kts | 43° |
| 2026-05-08 01:12 | 35.15096 | -116.34315 | 24732 ft | 416 kts | 45° |
| 2026-05-08 01:12 | 35.17089 | -116.31754 | 24281 ft | 413 kts | 45° |
| 2026-05-08 01:13 | 35.19042 | -116.29184 | 23829 ft | 411 kts | 46° |
| 2026-05-08 01:13 | 35.20950 | -116.26636 | 23383 ft | 408 kts | 46° |
| 2026-05-08 01:13 | 35.22865 | -116.24053 | 22929 ft | 406 kts | 46° |
| 2026-05-08 01:13 | 35.24715 | -116.21538 | 22484 ft | 397 kts | 47° |
| 2026-05-08 01:14 | 35.26541 | -116.19041 | 22030 ft | 388 kts | 47° |
| 2026-05-08 01:14 | 35.28305 | -116.16618 | 21582 ft | 381 kts | 47° |
| 2026-05-08 01:14 | 35.30059 | -116.14205 | 21129 ft | 376 kts | 47° |
| 2026-05-08 01:14 | 35.31800 | -116.11812 | 20676 ft | 372 kts | 47° |
| 2026-05-08 01:15 | 35.33522 | -116.09447 | 20224 ft | 369 kts | 46° |
| 2026-05-08 01:15 | 35.35202 | -116.07138 | 19842 ft | 365 kts | 47° |
| 2026-05-08 01:15 | 35.36897 | -116.04809 | 19486 ft | 363 kts | 46° |
| 2026-05-08 01:15 | 35.38580 | -116.02496 | 19133 ft | 361 kts | 46° |
| 2026-05-08 01:16 | 35.40239 | -116.00212 | 18784 ft | 359 kts | 46° |
| 2026-05-08 01:16 | 35.41900 | -115.97925 | 18432 ft | 357 kts | 46° |
| 2026-05-08 01:16 | 35.43529 | -115.95681 | 18087 ft | 356 kts | 46° |
| 2026-05-08 01:16 | 35.45173 | -115.93414 | 17738 ft | 354 kts | 46° |
| 2026-05-08 01:17 | 35.46815 | -115.91149 | 17382 ft | 352 kts | 46° |
| 2026-05-08 01:17 | 35.48428 | -115.88922 | 17033 ft | 351 kts | 46° |
| 2026-05-08 01:17 | 35.50051 | -115.86678 | 16683 ft | 350 kts | 46° |
| 2026-05-08 01:17 | 35.51667 | -115.84444 | 16333 ft | 348 kts | 46° |
| 2026-05-08 01:18 | 35.53258 | -115.82243 | 15984 ft | 347 kts | 46° |
| 2026-05-08 01:18 | 35.54860 | -115.80024 | 15633 ft | 346 kts | 46° |
| 2026-05-08 01:18 | 35.56457 | -115.77811 | 15282 ft | 344 kts | 46° |
| 2026-05-08 01:18 | 35.58033 | -115.75644 | 14934 ft | 332 kts | 46° |
| 2026-05-08 01:19 | 35.59529 | -115.73596 | 14581 ft | 318 kts | 46° |
| 2026-05-08 01:19 | 35.60993 | -115.71602 | 14226 ft | 308 kts | 46° |
| 2026-05-08 01:19 | 35.62402 | -115.69690 | 13878 ft | 302 kts | 46° |
| 2026-05-08 01:19 | 35.63807 | -115.67788 | 13529 ft | 298 kts | 46° |
| 2026-05-08 01:20 | 35.65196 | -115.65911 | 13212 ft | 293 kts | 46° |
| 2026-05-08 01:20 | 35.66556 | -115.64072 | 13075 ft | 288 kts | 46° |
| 2026-05-08 01:20 | 35.67902 | -115.62252 | 13018 ft | 285 kts | 46° |
| 2026-05-08 01:20 | 35.69228 | -115.60460 | 13008 ft | 288 kts | 46° |
| 2026-05-08 01:21 | 35.70599 | -115.58628 | 13000 ft | 291 kts | 44° |
| 2026-05-08 01:21 | 35.72098 | -115.56944 | 13004 ft | 292 kts | 38° |
| 2026-05-08 01:21 | 35.73698 | -115.55428 | 13006 ft | 293 kts | 34° |
| 2026-05-08 01:21 | 35.75389 | -115.54003 | 13008 ft | 294 kts | 32° |
| 2026-05-08 01:22 | 35.77128 | -115.52651 | 13004 ft | 294 kts | 30° |
| 2026-05-08 01:22 | 35.78865 | -115.51366 | 13006 ft | 295 kts | 29° |
| 2026-05-08 01:22 | 35.80649 | -115.50087 | 13008 ft | 295 kts | 28° |
| 2026-05-08 01:22 | 35.82436 | -115.48827 | 13011 ft | 295 kts | 28° |
| 2026-05-08 01:23 | 35.84206 | -115.47589 | 13001 ft | 295 kts | 28° |
| 2026-05-08 01:23 | 35.85997 | -115.46339 | 13002 ft | 295 kts | 28° |
| 2026-05-08 01:23 | 35.87795 | -115.45084 | 13003 ft | 295 kts | 28° |
| 2026-05-08 01:23 | 35.89565 | -115.43848 | 13000 ft | 295 kts | 28° |
| 2026-05-08 01:24 | 35.91355 | -115.42597 | 13001 ft | 295 kts | 28° |
| 2026-05-08 01:24 | 35.93145 | -115.41347 | 13003 ft | 295 kts | 28° |
| 2026-05-08 01:24 | 35.94939 | -115.40094 | 13003 ft | 295 kts | 28° |
| 2026-05-08 01:24 | 35.96726 | -115.38846 | 12731 ft | 300 kts | 28° |
| 2026-05-08 01:25 | 35.98536 | -115.37554 | 12351 ft | 300 kts | 31° |
| 2026-05-08 01:25 | 35.99994 | -115.35757 | 11969 ft | 302 kts | 54° |
| 2026-05-08 01:25 | 36.00842 | -115.33368 | 11604 ft | 305 kts | 71° |
| 2026-05-08 01:25 | 36.01240 | -115.30781 | 11233 ft | 306 kts | 82° |
| 2026-05-08 01:26 | 36.01356 | -115.28180 | 10863 ft | 306 kts | 88° |
| 2026-05-08 01:26 | 36.01311 | -115.25543 | 10486 ft | 305 kts | 91° |
| 2026-05-08 01:26 | 36.01179 | -115.22930 | 10111 ft | 304 kts | 93° |
| 2026-05-08 01:26 | 36.01012 | -115.20363 | 9741 ft | 303 kts | 94° |
| 2026-05-08 01:27 | 36.00832 | -115.17771 | 9362 ft | 302 kts | 94° |
| 2026-05-08 01:27 | 36.00657 | -115.15178 | 8984 ft | 301 kts | 94° |
| 2026-05-08 01:27 | 36.00519 | -115.12639 | 8611 ft | 300 kts | 91° |
| 2026-05-08 01:27 | 36.00908 | -115.10132 | 8234 ft | 298 kts | 66° |
| 2026-05-08 01:28 | 36.02127 | -115.08114 | 8093 ft | 292 kts | 41° |
| 2026-05-08 01:28 | 36.03790 | -115.06693 | 8028 ft | 290 kts | 29° |
| 2026-05-08 01:28 | 36.05557 | -115.05545 | 8000 ft | 289 kts | 25° |
| 2026-05-08 01:28 | 36.07376 | -115.04485 | 7993 ft | 288 kts | 23° |
| 2026-05-08 01:29 | 36.09214 | -115.03456 | 7989 ft | 287 kts | 22° |
| 2026-05-08 01:29 | 36.10955 | -115.02493 | 7913 ft | 268 kts | 22° |
| 2026-05-08 01:29 | 36.12564 | -115.01604 | 7499 ft | 239 kts | 22° |
| 2026-05-08 01:29 | 36.14104 | -115.01060 | 7046 ft | 224 kts | 8° |
| 2026-05-08 01:30 | 36.15628 | -115.00823 | 6596 ft | 217 kts | 4° |
| 2026-05-08 01:30 | 36.17076 | -115.01031 | 6144 ft | 210 kts | 342° |
| 2026-05-08 01:30 | 36.18431 | -115.01694 | 5705 ft | 205 kts | 334° |
| 2026-05-08 01:30 | 36.19565 | -115.02671 | 5239 ft | 194 kts | 312° |
| 2026-05-08 01:31 | 36.20372 | -115.03954 | 4807 ft | 188 kts | 304° |
| 2026-05-08 01:31 | 36.21103 | -115.05280 | 4362 ft | 183 kts | 303° |
| 2026-05-08 01:31 | 36.21766 | -115.06522 | 4121 ft | 167 kts | 302° |
| 2026-05-08 01:31 | 36.22059 | -115.07876 | 3823 ft | 167 kts | 266° |
| 2026-05-08 01:32 | 36.21505 | -115.09128 | 3602 ft | 172 kts | 224° |
| 2026-05-08 01:32 | 36.20492 | -115.09907 | 3519 ft | 174 kts | 210° |
| 2026-05-08 01:32 | 36.19372 | -115.10485 | 3470 ft | 174 kts | 201° |
| 2026-05-08 01:32 | 36.18222 | -115.10978 | 3420 ft | 174 kts | 200° |
| 2026-05-08 01:33 | 36.17091 | -115.11452 | 3369 ft | 173 kts | 200° |
| 2026-05-08 01:33 | 36.15987 | -115.12036 | 3325 ft | 171 kts | 207° |
| 2026-05-08 01:33 | 36.14919 | -115.12681 | 3255 ft | 165 kts | 207° |
| 2026-05-08 01:33 | 36.13940 | -115.13307 | 3129 ft | 159 kts | 208° |
| 2026-05-08 01:34 | 36.12934 | -115.13910 | 2961 ft | 158 kts | 204° |
| 2026-05-08 01:34 | 36.11959 | -115.14453 | 2739 ft | 149 kts | 206° |
| 2026-05-08 01:34 | 36.11065 | -115.15002 | 2496 ft | 140 kts | 206° |
| 2026-05-08 01:34 | 36.10198 | -115.15497 | 2273 ft | 134 kts | 204° |
| 2026-05-08 01:35 | 36.09391 | -115.15960 | 2189 ft | 113 kts | 205° |
| 2026-05-08 01:35 | 36.08991 | -115.16189 | 2189 ft | 30 kts | 205° |
| 2026-05-08 01:35 | 36.08913 | -115.16255 | 2189 ft | 9 kts | 271° |
| 2026-05-08 01:35 | 36.08942 | -115.16344 | 2189 ft | 12 kts | 315° |
| 2026-05-08 01:36 | 36.09005 | -115.16330 | 2189 ft | 10 kts | 24° |
| 2026-05-08 01:36 | 36.09070 | -115.16294 | 2189 ft | 10 kts | 24° |
| 2026-05-08 01:36 | 36.09139 | -115.16256 | 2189 ft | 11 kts | 24° |
| 2026-05-08 01:36 | 36.09209 | -115.16216 | 2189 ft | 12 kts | 24° |
| 2026-05-08 01:37 | 36.09285 | -115.16174 | 2189 ft | 12 kts | 24° |
| 2026-05-08 01:37 | 36.09363 | -115.16130 | 2189 ft | 13 kts | 25° |
| 2026-05-08 01:37 | 36.09453 | -115.16080 | 2189 ft | 15 kts | 24° |
| 2026-05-08 01:37 | 36.09550 | -115.16025 | 2189 ft | 16 kts | 24° |
| 2026-05-08 01:38 | 36.09650 | -115.15970 | 2189 ft | 16 kts | 24° |
| 2026-05-08 01:38 | 36.09715 | -115.15933 | 2189 ft | 10 kts | 24° |
| 2026-05-08 01:38 | 36.09780 | -115.15897 | 2189 ft | 11 kts | 24° |
| 2026-05-08 01:38 | 36.09849 | -115.15859 | 2189 ft | 11 kts | 24° |
| 2026-05-08 01:39 | 36.09904 | -115.15831 | 2189 ft | 6 kts | 360° |
| 2026-05-08 01:39 | 36.09928 | -115.15881 | 2189 ft | 8 kts | 283° |
| 2026-05-08 01:39 | 36.09959 | -115.15940 | 2189 ft | 9 kts | 311° |
| 2026-05-08 01:39 | 36.09964 | -115.16004 | 2189 ft | 8 kts | 217° |
| 2026-05-08 01:40 | 36.09921 | -115.16016 | 2189 ft | 6 kts | 124° |
| 2026-05-08 01:40 | 36.09908 | -115.15984 | 2189 ft | 1 kts | 116° |
| 2026-05-08 01:40 | 36.09907 | -115.15980 | 2189 ft | 0 kts | 116° |